Time;durP1;ratioP1;P1;durP2;ratioP2;P2;SDS_P1;SDS_P2;PMS_P1;PMS_P2;Temp;Humidity;BMP_temperature;BMP_pressure;BME280_temperature;BME280_humidity;BME280_pressure;Samples;Min_cycle;Max_cycle;Signal;HPM_P1;HPM_P2
2023/05/08 00:00:13;;;;;;;6.00;3.40;;;;;;;9.37;100.00;101574.83;109654;1241;72046;-73
2023/05/08 00:03:02;;;;;;;4.40;3.10;;;;;;;9.38;100.00;101576.38;109613;1245;57152;-73
2023/05/08 00:05:31;;;;;;;6.90;3.40;;;;;;;9.38;100.00;101576.02;109761;1241;57708;-73
2023/05/08 00:08:00;;;;;;;6.00;3.30;;;;;;;9.29;100.00;101580.13;109651;1241;73497;-73
2023/05/08 00:10:29;;;;;;;4.30;3.10;;;;;;;9.27;100.00;101581.42;109730;1241;71718;-73
2023/05/08 00:12:58;;;;;;;6.90;3.40;;;;;;;9.36;100.00;101584.48;109643;1241;60456;-74
2023/05/08 00:15:27;;;;;;;7.90;3.90;;;;;;;9.37;100.00;101584.77;109681;1241;73754;-73
2023/05/08 00:17:55;;;;;;;6.20;4.00;;;;;;;9.34;100.00;101583.52;109553;1245;64134;-73
2023/05/08 00:20:24;;;;;;;5.50;3.70;;;;;;;9.22;100.00;101585.70;109776;1241;57718;-73
2023/05/08 00:22:53;;;;;;;7.30;3.60;;;;;;;9.15;100.00;101583.47;109757;1241;71071;-73
2023/05/08 00:25:22;;;;;;;5.50;3.60;;;;;;;9.03;100.00;101585.80;109834;1240;70497;-73
2023/05/08 00:27:50;;;;;;;6.30;3.40;;;;;;;9.02;100.00;101587.64;109799;1241;69489;-73
2023/05/08 00:30:20;;;;;;;4.90;3.30;;;;;;;8.95;100.00;101587.81;109542;1240;64012;-73
2023/05/08 00:32:48;;;;;;;6.70;3.40;;;;;;;8.96;100.00;101589.83;109563;1245;61869;-73
2023/05/08 00:35:18;;;;;;;6.40;3.60;;;;;;;8.95;100.00;101592.69;109803;1241;57258;-73
2023/05/08 00:37:47;;;;;;;5.70;3.40;;;;;;;8.97;100.00;101597.11;109826;1241;72629;-74
2023/05/08 00:40:15;;;;;;;7.30;3.60;;;;;;;8.95;100.00;101594.77;109718;1241;71638;-73
2023/05/08 00:42:44;;;;;;;6.50;3.60;;;;;;;8.92;100.00;101592.83;109774;1241;59634;-72
2023/05/08 00:45:13;;;;;;;4.80;3.70;;;;;;;8.92;100.00;101593.35;109734;1241;72976;-73
2023/05/08 00:47:42;;;;;;;5.40;3.60;;;;;;;8.92;100.00;101588.84;109738;1245;57668;-73
2023/05/08 00:50:11;;;;;;;7.50;4.00;;;;;;;8.93;100.00;101579.27;109747;1241;57455;-73
2023/05/08 00:52:40;;;;;;;5.20;3.60;;;;;;;8.92;100.00;101582.91;109763;1241;64108;-73
2023/05/08 00:55:09;;;;;;;5.10;3.40;;;;;;;8.95;100.00;101583.65;109781;1241;61182;-73
2023/05/08 00:57:38;;;;;;;4.80;3.40;;;;;;;8.94;100.00;101578.13;109749;1241;59816;-73
2023/05/08 01:00:08;;;;;;;6.50;4.10;;;;;;;8.93;100.00;101578.73;109576;1241;63807;-73
2023/05/08 01:02:39;;;;;;;6.00;3.90;;;;;;;8.90;100.00;101579.21;109694;1244;62664;-74
2023/05/08 01:05:08;;;;;;;4.70;3.60;;;;;;;8.90;100.00;101581.30;109740;1241;57203;-72
2023/05/08 01:07:37;;;;;;;5.70;3.60;;;;;;;8.88;100.00;101576.20;109754;1244;62418;-73
2023/05/08 01:10:07;;;;;;;6.10;3.60;;;;;;;8.93;100.00;101572.79;109577;1241;61632;-73
2023/05/08 01:13:07;;;;;;;5.90;3.60;;;;;;;8.96;100.00;101569.54;109820;1241;69202;-73
2023/05/08 01:15:59;;;;;;;6.70;3.70;;;;;;;8.98;100.00;101566.98;109582;1241;63493;-72
2023/05/08 01:18:44;;;;;;;6.20;4.00;;;;;;;9.01;100.00;101570.10;109610;1241;62873;-73
2023/05/08 01:21:49;;;;;;;5.90;3.60;;;;;;;9.04;100.00;101574.00;109693;1241;57972;-73
2023/05/08 01:25:04;;;;;;;5.20;3.70;;;;;;;8.97;100.00;101573.79;109678;1241;73530;-74
2023/05/08 01:27:57;;;;;;;6.00;3.80;;;;;;;9.04;100.00;101573.48;109784;1241;61940;-74
2023/05/08 01:30:32;;;;;;;;;;;;;;;9.07;100.00;101576.59;109752;1241;70988;-73
2023/05/08 01:33:13;;;;;;;8.10;3.90;;;;;;;9.10;100.00;101576.66;109462;1241;368984;-74
2023/05/08 01:35:52;;;;;;;6.20;3.80;;;;;;;9.02;100.00;101580.16;109799;1244;57705;-73
2023/05/08 01:38:42;;;;;;;5.20;3.60;;;;;;;8.98;100.00;101576.88;109737;1241;60953;-73
2023/05/08 01:41:24;;;;;;;6.00;3.70;;;;;;;9.04;100.00;101578.52;109721;1241;63872;-73
2023/05/08 01:43:57;;;;;;;6.10;3.40;;;;;;;9.02;100.00;101579.65;109751;1241;72165;-73
2023/05/08 01:46:31;;;;;;;7.60;3.60;;;;;;;8.99;100.00;101581.52;109626;1241;60181;-72
2023/05/08 01:49:16;;;;;;;5.40;4.00;;;;;;;9.05;100.00;101580.71;109791;1244;62462;-73
2023/05/08 01:51:51;;;;;;;5.50;3.70;;;;;;;9.06;100.00;101576.30;109722;1244;57911;-73
2023/05/08 01:54:25;;;;;;;6.60;4.10;;;;;;;9.00;100.00;101574.34;109732;1244;57610;-73
2023/05/08 01:56:58;;;;;;;6.50;4.20;;;;;;;9.02;100.00;101569.57;109597;1245;62166;-74
2023/05/08 01:59:30;;;;;;;5.40;3.50;;;;;;;8.99;100.00;101570.06;109684;1241;72474;-73
2023/05/08 02:02:01;;;;;;;5.50;3.70;;;;;;;9.00;100.00;101566.17;109681;1241;70710;-73
2023/05/08 02:04:32;;;;;;;6.10;3.60;;;;;;;9.06;100.00;101565.54;109684;1241;63632;-73
2023/05/08 02:07:02;;;;;;;4.20;3.80;;;;;;;9.08;100.00;101570.13;109694;1244;62865;-74
2023/05/08 02:09:31;;;;;;;6.30;4.30;;;;;;;9.07;100.00;101573.48;109570;1241;60601;-73
2023/05/08 02:12:02;;;;;;;5.40;3.80;;;;;;;9.10;100.00;101575.73;109494;1246;63467;-72
2023/05/08 02:14:31;;;;;;;7.00;3.90;;;;;;;9.17;100.00;101562.89;109565;1241;63185;-73
2023/05/08 02:17:02;;;;;;;5.30;4.20;;;;;;;9.17;100.00;101562.87;109780;1241;60357;-73
2023/05/08 02:19:33;;;;;;;6.70;3.80;;;;;;;9.16;100.00;101563.80;109531;1241;73210;-73
2023/05/08 02:22:04;;;;;;;9.00;4.60;;;;;;;9.18;100.00;101562.96;109536;1245;57744;-73
2023/05/08 02:24:34;;;;;;;4.90;3.80;;;;;;;9.19;100.00;101559.77;109454;1244;60447;-73
2023/05/08 02:27:05;;;;;;;4.70;3.50;;;;;;;9.22;100.00;101561.19;109527;1245;63463;-73
2023/05/08 02:29:36;;;;;;;8.60;4.40;;;;;;;9.20;100.00;101559.26;109355;1243;61503;-73
2023/05/08 02:32:07;;;;;;;6.20;3.80;;;;;;;9.14;100.00;101560.75;109302;1244;72118;-73
2023/05/08 02:34:37;;;;;;;6.60;4.20;;;;;;;9.08;100.00;101562.29;109614;1243;63703;-73
2023/05/08 02:37:18;;;;;;;7.20;3.90;;;;;;;9.08;100.00;101564.91;109360;1245;62677;-73
2023/05/08 02:39:48;;;;;;;6.90;3.90;;;;;;;9.08;100.00;101568.92;109468;1245;57654;-74
2023/05/08 02:42:17;;;;;;;5.90;3.70;;;;;;;9.00;100.00;101576.08;109466;1244;73502;-74
2023/05/08 02:44:46;;;;;;;5.10;3.70;;;;;;;9.04;100.00;101580.02;109524;1244;72099;-73
2023/05/08 02:47:24;;;;;;;5.20;3.70;;;;;;;9.02;100.00;101587.97;109509;1244;70873;-73
2023/05/08 02:50:26;;;;;;;5.30;3.50;;;;;;;8.93;100.00;101587.90;109580;1241;62734;-73
2023/05/08 02:53:04;;;;;;;6.40;4.00;;;;;;;8.82;100.00;101589.90;109517;1247;62964;-74
2023/05/08 02:55:52;;;;;;;7.40;4.10;;;;;;;8.79;100.00;101591.41;109467;1241;60880;-73
2023/05/08 02:58:36;;;;;;;8.30;4.40;;;;;;;8.73;100.00;101589.09;109484;1248;63272;-74
2023/05/08 03:01:15;;;;;;;7.20;4.10;;;;;;;8.67;100.00;101587.67;109571;1241;72745;-74
2023/05/08 03:03:53;;;;;;;4.90;3.60;;;;;;;8.71;100.00;101588.34;109575;1241;59699;-73
2023/05/08 03:06:25;;;;;;;5.50;3.90;;;;;;;8.73;100.00;101588.75;109530;1241;73156;-74
2023/05/08 03:08:59;;;;;;;7.80;3.70;;;;;;;8.69;100.00;101589.84;109597;1245;62648;-73
2023/05/08 03:11:37;;;;;;;7.30;4.30;;;;;;;8.68;100.00;101594.24;109735;1243;61513;-72
2023/05/08 03:14:13;;;;;;;7.20;4.20;;;;;;;8.63;100.00;101596.94;109819;1241;63472;-75
2023/05/08 03:16:45;;;;;;;6.70;4.00;;;;;;;8.46;100.00;101599.67;109531;1243;71317;-74
2023/05/08 03:19:27;;;;;;;8.40;4.10;;;;;;;8.48;100.00;101600.59;109342;1241;70337;-73
2023/05/08 03:21:57;;;;;;;6.30;3.90;;;;;;;8.41;100.00;101600.45;109456;1243;74155;-73
2023/05/08 03:24:30;;;;;;;7.10;4.10;;;;;;;8.33;100.00;101598.05;109463;1245;57716;-73
2023/05/08 03:27:01;;;;;;;6.40;4.30;;;;;;;8.32;100.00;101601.38;109433;1248;57660;-73
2023/05/08 03:29:32;;;;;;;6.80;4.30;;;;;;;8.31;100.00;101602.09;109525;1241;73381;-72
2023/05/08 03:32:02;;;;;;;12.60;7.30;;;;;;;8.30;100.00;101600.05;109607;1241;71951;-73
2023/05/08 03:34:33;;;;;;;6.50;4.10;;;;;;;8.29;100.00;101605.87;109452;1248;61098;-74
2023/05/08 03:37:02;;;;;;;8.90;4.50;;;;;;;8.24;100.00;101604.91;109368;1241;73799;-73
2023/05/08 03:39:30;;;;;;;8.10;4.90;;;;;;;8.22;100.00;101602.70;109652;1245;62618;-73
2023/05/08 03:41:59;;;;;;;7.80;4.30;;;;;;;8.18;100.00;101602.40;109693;1245;57897;-71
2023/05/08 03:44:30;;;;;;;7.50;4.70;;;;;;;8.19;100.00;101600.42;109675;1244;62891;-73
2023/05/08 03:46:59;;;;;;;18.30;9.90;;;;;;;8.18;100.00;101609.86;109595;1242;71402;-73
2023/05/08 03:49:30;;;;;;;8.30;5.40;;;;;;;8.17;100.00;101615.27;109490;1248;61163;-74
2023/05/08 03:51:59;;;;;;;8.50;5.60;;;;;;;8.17;100.00;101616.67;109616;1241;72876;-73
2023/05/08 03:54:29;;;;;;;12.70;5.40;;;;;;;8.18;100.00;101622.90;109509;1246;63160;-75
2023/05/08 03:56:58;;;;;;;8.00;5.00;;;;;;;8.19;100.00;101619.19;109590;1245;57685;-74
2023/05/08 04:00:14;;;;;;;8.00;5.20;;;;;;;8.14;100.00;101624.13;109468;1243;73627;-72
2023/05/08 04:03:14;;;;;;;10.40;6.10;;;;;;;8.12;100.00;101627.14;109383;1246;62061;-71
2023/05/08 04:05:52;;;;;;;7.60;5.10;;;;;;;8.09;100.00;101633.38;109615;1245;59043;-72
2023/05/08 04:08:38;;;;;;;8.90;5.30;;;;;;;8.03;100.00;101640.22;109442;1245;72657;-73
2023/05/08 04:11:50;;;;;;;9.70;5.40;;;;;;;7.97;100.00;101639.13;109351;1248;62508;-72
2023/05/08 04:14:23;;;;;;;7.10;5.00;;;;;;;7.87;100.00;101640.63;109203;1248;57542;-72
2023/05/08 04:16:59;;;;;;;7.30;5.20;;;;;;;7.88;100.00;101641.80;109423;1247;62205;-70
2023/05/08 04:19:35;;;;;;;9.70;6.30;;;;;;;7.80;100.00;101647.91;109458;1242;71432;-73
2023/05/08 04:22:09;;;;;;;6.80;4.90;;;;;;;7.81;100.00;101649.60;109502;1241;71059;-73
2023/05/08 04:24:46;;;;;;;8.10;5.00;;;;;;;7.75;100.00;101651.76;109391;1243;62858;-72
2023/05/08 04:27:17;;;;;;;9.90;6.00;;;;;;;7.74;100.00;101648.71;109646;1245;57661;-74
2023/05/08 04:29:46;;;;;;;7.30;5.60;;;;;;;7.71;100.00;101651.61;109441;1241;60389;-74
2023/05/08 04:32:15;;;;;;;7.50;4.70;;;;;;;7.67;100.00;101655.23;109342;1241;73174;-74
2023/05/08 04:34:44;;;;;;;9.50;5.70;;;;;;;7.66;100.00;101657.89;109408;1246;62317;-74
2023/05/08 04:37:27;;;;;;;9.10;5.50;;;;;;;7.60;100.00;101660.05;109430;1242;59257;-74
2023/05/08 04:39:58;;;;;;;7.80;4.90;;;;;;;7.50;100.00;101665.23;109373;1248;73125;-74
2023/05/08 04:42:27;;;;;;;7.90;5.60;;;;;;;7.52;100.00;101663.38;109200;1248;57792;-75
2023/05/08 04:44:57;;;;;;;10.50;6.00;;;;;;;7.50;100.00;101665.55;109449;1241;57169;-74
2023/05/08 04:47:26;;;;;;;8.30;5.40;;;;;;;7.52;100.00;101664.79;109307;1241;73519;-74
2023/05/08 04:49:55;;;;;;;9.60;6.00;;;;;;;7.44;100.00;101664.05;109531;1247;72855;-73
2023/05/08 04:52:25;;;;;;;10.50;5.50;;;;;;;7.46;100.00;101671.25;109459;1241;69704;-73
2023/05/08 04:54:54;;;;;;;7.90;6.10;;;;;;;7.50;100.00;101669.40;109362;1247;62911;-74
2023/05/08 04:57:23;;;;;;;10.40;5.60;;;;;;;7.39;100.00;101662.89;109532;1245;57615;-74
2023/05/08 04:59:52;;;;;;;7.80;5.30;;;;;;;7.45;100.00;101669.40;109582;1241;57672;-72
2023/05/08 05:02:21;;;;;;;8.40;5.50;;;;;;;7.45;100.00;101671.66;109493;1241;73518;-74
2023/05/08 05:04:52;;;;;;;7.40;5.60;;;;;;;7.48;100.00;101671.86;109460;1245;72032;-72
2023/05/08 05:07:21;;;;;;;7.90;5.30;;;;;;;7.46;100.00;101678.90;109210;1246;61007;-73
2023/05/08 05:09:50;;;;;;;7.00;4.90;;;;;;;7.44;100.00;101679.31;109473;1241;63299;-72
2023/05/08 05:12:19;;;;;;;8.10;4.70;;;;;;;7.43;100.00;101684.08;109483;1245;57973;-72
2023/05/08 05:14:48;;;;;;;7.30;5.30;;;;;;;7.41;100.00;101687.95;109673;1242;57741;-72
2023/05/08 05:17:17;;;;;;;7.50;4.60;;;;;;;7.43;100.00;101688.21;109605;1242;62472;-73
2023/05/08 05:19:47;;;;;;;8.20;5.10;;;;;;;7.39;100.00;101685.43;109644;1243;60857;-72
2023/05/08 05:22:17;;;;;;;8.90;5.50;;;;;;;7.40;100.00;101679.33;109533;1241;69568;-72
2023/05/08 05:24:46;;;;;;;9.50;5.20;;;;;;;7.31;100.00;101684.92;109473;1241;73296;-71
2023/05/08 05:27:15;;;;;;;7.80;4.60;;;;;;;7.31;100.00;101688.75;109763;1245;57325;-72
2023/05/08 05:29:46;;;;;;;10.40;5.30;;;;;;;7.33;100.00;101691.07;109500;1242;61934;-72
2023/05/08 05:32:15;;;;;;;10.50;5.40;;;;;;;7.26;100.00;101700.04;109674;1245;73990;-75
2023/05/08 05:34:44;;;;;;;10.80;5.10;;;;;;;7.23;100.00;101699.50;109486;1241;71781;-72
2023/05/08 05:37:13;;;;;;;10.80;6.20;;;;;;;7.19;100.00;101702.58;109728;1242;59255;-72
2023/05/08 05:39:42;;;;;;;8.10;5.70;;;;;;;7.22;100.00;101705.95;109735;1241;63227;-74
2023/05/08 05:42:11;;;;;;;8.50;6.00;;;;;;;7.14;100.00;101707.30;109806;1244;60612;-73
2023/05/08 05:44:40;;;;;;;10.40;6.30;;;;;;;7.13;100.00;101705.61;109722;1243;57300;-73
2023/05/08 05:47:09;;;;;;;10.10;6.60;;;;;;;7.12;100.00;101710.49;109688;1244;62185;-72
2023/05/08 05:49:41;;;;;;;10.60;6.50;;;;;;;7.09;100.00;101709.77;109707;1244;62037;-71
2023/05/08 05:52:11;;;;;;;10.70;6.30;;;;;;;7.09;100.00;101714.25;109539;1245;70419;-72
2023/05/08 05:54:41;;;;;;;9.40;5.60;;;;;;;7.09;100.00;101715.46;109479;1244;74168;-72
2023/05/08 05:57:12;;;;;;;9.50;5.60;;;;;;;7.11;100.00;101715.38;109476;1245;57209;-72
2023/05/08 05:59:40;;;;;;;9.80;4.40;;;;;;;7.12;100.00;101713.08;109497;1244;61373;-71
2023/05/08 06:02:13;;;;;;;9.20;5.20;;;;;;;7.11;100.00;101715.91;109626;1244;64363;-72
2023/05/08 06:04:42;;;;;;;10.60;5.50;;;;;;;7.10;100.00;101720.30;109521;1245;71732;-72
2023/05/08 06:07:11;;;;;;;8.90;5.80;;;;;;;7.11;100.00;101723.73;109530;1244;70864;-71
2023/05/08 06:09:39;;;;;;;10.30;5.70;;;;;;;7.09;100.00;101728.65;109505;1244;74068;-70
2023/05/08 06:12:10;;;;;;;7.80;5.80;;;;;;;7.12;100.00;101730.24;109521;1245;57089;-71
2023/05/08 06:14:39;;;;;;;8.30;5.80;;;;;;;7.15;100.00;101733.06;109710;1244;60884;-72
2023/05/08 06:17:09;;;;;;;8.80;5.50;;;;;;;7.19;100.00;101736.19;109542;1244;74105;-72
2023/05/08 06:19:38;;;;;;;8.30;5.80;;;;;;;7.16;100.00;101737.34;109651;1244;62111;-71
2023/05/08 06:22:07;;;;;;;10.60;5.70;;;;;;;7.13;100.00;101739.38;109502;1244;60578;-72
2023/05/08 06:24:36;;;;;;;8.20;5.70;;;;;;;7.16;100.00;101740.63;109466;1244;63365;-73
2023/05/08 06:27:05;;;;;;;9.20;5.80;;;;;;;7.15;100.00;101743.12;109558;1245;63298;-73
2023/05/08 06:29:33;;;;;;;9.10;5.70;;;;;;;7.05;100.00;101739.89;109583;1243;61502;-72
2023/05/08 06:32:02;;;;;;;9.40;5.60;;;;;;;7.07;100.00;101745.34;109618;1243;63621;-72
2023/05/08 06:34:31;;;;;;;7.50;5.00;;;;;;;7.10;100.00;101746.10;109741;1242;60706;-73
2023/05/08 06:37:00;;;;;;;8.80;5.10;;;;;;;7.11;100.00;101748.14;109653;1241;67982;-73
2023/05/08 06:39:28;;;;;;;9.30;5.00;;;;;;;7.11;100.00;101749.87;109701;1245;73463;-73
2023/05/08 06:41:57;;;;;;;9.20;5.40;;;;;;;7.17;100.00;101745.63;109726;1241;57180;-72
2023/05/08 06:44:30;;;;;;;9.20;5.50;;;;;;;7.19;100.00;101746.92;109745;1242;57714;-72
2023/05/08 06:46:58;;;;;;;7.10;5.20;;;;;;;7.17;100.00;101750.84;109740;1241;73518;-73
2023/05/08 06:49:27;;;;;;;7.10;4.50;;;;;;;7.18;100.00;101754.95;109732;1241;62681;-73
2023/05/08 06:51:56;;;;;;;7.70;5.00;;;;;;;7.18;100.00;101755.64;109548;1241;59797;-72
2023/05/08 06:54:25;;;;;;;8.30;4.70;;;;;;;7.22;100.00;101754.77;109508;1241;73801;-73
2023/05/08 06:56:54;;;;;;;12.90;5.80;;;;;;;7.27;100.00;101753.02;109701;1244;57291;-73
2023/05/08 06:59:23;;;;;;;8.50;5.80;;;;;;;7.31;100.00;101755.98;109734;1241;57126;-74
2023/05/08 07:01:51;;;;;;;8.30;5.30;;;;;;;7.30;100.00;101753.23;109749;1241;73479;-69
2023/05/08 07:04:20;;;;;;;7.90;5.10;;;;;;;7.32;100.00;101763.39;109765;1241;72514;-73
2023/05/08 07:06:49;;;;;;;10.40;5.40;;;;;;;7.28;100.00;101766.85;109774;1241;59760;-73
2023/05/08 07:09:18;;;;;;;8.30;4.50;;;;;;;7.33;100.00;101771.15;109683;1241;62245;-73
2023/05/08 07:11:47;;;;;;;7.20;5.00;;;;;;;7.40;100.00;101769.27;109724;1241;62144;-72
2023/05/08 07:14:15;;;;;;;9.30;5.00;;;;;;;7.46;100.00;101776.84;109695;1242;61710;-73
2023/05/08 07:16:44;;;;;;;6.90;4.60;;;;;;;7.51;100.00;101778.52;109694;1241;65115;-73
2023/05/08 07:19:13;;;;;;;7.80;5.20;;;;;;;7.56;100.00;101779.55;109616;1244;61721;-72
2023/05/08 07:21:42;;;;;;;6.10;4.30;;;;;;;7.62;100.00;101780.80;109570;1241;60010;-73
2023/05/08 07:24:11;;;;;;;9.00;5.00;;;;;;;7.66;100.00;101777.54;109612;1241;72798;-72
2023/05/08 07:26:40;;;;;;;8.50;4.80;;;;;;;7.69;100.00;101774.61;109549;1241;62668;-72
2023/05/08 07:29:08;;;;;;;8.60;4.70;;;;;;;7.68;100.00;101773.96;109441;1241;61613;-72
2023/05/08 07:31:39;;;;;;;9.40;4.50;;;;;;;7.78;100.00;101776.48;109680;1241;62710;-73
2023/05/08 07:34:08;;;;;;;7.70;4.40;;;;;;;7.84;100.00;101779.50;109688;1241;61590;-73
2023/05/08 07:36:37;;;;;;;8.00;4.10;;;;;;;7.84;100.00;101782.82;109463;1241;59221;-73
2023/05/08 07:39:06;;;;;;;8.60;4.30;;;;;;;7.81;100.00;101791.09;109495;1246;63252;-73
2023/05/08 07:41:35;;;;;;;8.50;4.20;;;;;;;7.91;100.00;101793.24;109699;1244;62163;-72
2023/05/08 07:44:04;;;;;;;9.90;4.90;;;;;;;7.89;100.00;101792.14;109585;1241;61671;-72
2023/05/08 07:46:33;;;;;;;9.30;4.50;;;;;;;7.94;100.00;101790.84;109510;1241;74534;-73
2023/05/08 07:49:03;;;;;;;10.20;4.60;;;;;;;7.98;100.00;101793.83;109725;1241;72618;-70
2023/05/08 07:51:32;;;;;;;8.50;4.90;;;;;;;8.00;100.00;101793.03;109717;1241;70776;-75
2023/05/08 07:54:00;;;;;;;6.40;4.00;;;;;;;8.02;100.00;101795.38;109626;1241;72864;-75
2023/05/08 07:56:30;;;;;;;6.70;4.20;;;;;;;8.00;100.00;101792.70;109666;1244;57196;-72
2023/05/08 07:58:59;;;;;;;8.50;4.40;;;;;;;8.05;100.00;101793.00;109681;1241;61203;-72
2023/05/08 08:01:27;;;;;;;11.10;5.60;;;;;;;8.04;100.00;101792.31;109690;1241;72409;-73
2023/05/08 08:03:56;;;;;;;9.00;4.60;;;;;;;8.10;100.00;101789.98;109673;1241;62123;-72
2023/05/08 08:06:25;;;;;;;9.90;4.40;;;;;;;8.16;100.00;101787.83;109668;1241;59160;-73
2023/05/08 08:08:54;;;;;;;7.40;4.30;;;;;;;8.22;100.00;101789.25;109681;1242;63026;-73
2023/05/08 08:11:24;;;;;;;7.80;4.30;;;;;;;8.11;100.00;101793.26;109662;1241;62822;-73
2023/05/08 08:13:52;;;;;;;7.40;4.40;;;;;;;8.12;100.00;101797.17;109652;1241;61655;-73
2023/05/08 08:16:21;;;;;;;9.70;4.70;;;;;;;8.15;100.00;101798.27;109522;1241;62661;-73
2023/05/08 08:18:51;;;;;;;10.10;4.40;;;;;;;8.21;100.00;101797.80;109524;1241;60931;-73
2023/05/08 08:21:20;;;;;;;8.00;4.40;;;;;;;8.11;100.00;101802.46;109522;1241;60386;-73
2023/05/08 08:23:49;;;;;;;10.40;5.30;;;;;;;8.09;100.00;101805.29;109473;1241;63414;-73
2023/05/08 08:26:18;;;;;;;8.90;4.60;;;;;;;8.05;100.00;101811.23;109467;1241;62174;-72
2023/05/08 08:28:47;;;;;;;9.40;5.20;;;;;;;8.14;100.00;101811.50;109502;1241;62195;-74
2023/05/08 08:31:18;;;;;;;8.10;4.50;;;;;;;8.23;100.00;101811.61;109225;1241;73491;-75
2023/05/08 08:33:47;;;;;;;8.20;4.60;;;;;;;8.23;100.00;101813.54;109210;1241;60895;-73
2023/05/08 08:36:16;;;;;;;9.00;4.40;;;;;;;8.24;100.00;101809.13;109312;1241;59191;-74
2023/05/08 08:38:45;;;;;;;9.30;4.50;;;;;;;8.31;100.00;101813.89;109529;1241;62483;-73
2023/05/08 08:41:14;;;;;;;7.30;4.10;;;;;;;8.40;100.00;101817.30;109567;1244;57805;-73
2023/05/08 08:43:43;;;;;;;7.90;4.10;;;;;;;8.52;100.00;101812.76;109570;1244;57653;-73
2023/05/08 08:46:14;;;;;;;8.00;5.10;;;;;;;8.55;100.00;101813.30;109702;1241;62900;-73
2023/05/08 08:48:45;;;;;;;7.70;4.40;;;;;;;8.57;100.00;101822.05;109714;1241;71060;-73
2023/05/08 08:51:27;;;;;;;9.90;4.50;;;;;;;8.57;100.00;101824.15;109633;1241;71017;-73
2023/05/08 08:54:10;;;;;;;6.90;4.00;;;;;;;8.54;100.00;101827.42;109488;1245;71579;-73
2023/05/08 08:56:43;;;;;;;;;;;;;;;8.54;100.00;101827.94;109732;1243;57266;-72
2023/05/08 08:59:12;;;;;;;7.80;4.10;;;;;;;8.52;100.00;101830.13;109680;1241;60981;-72
2023/05/08 09:01:44;;;;;;;8.70;4.70;;;;;;;8.52;100.00;101826.64;109547;1241;63579;-73
2023/05/08 09:04:13;;;;;;;11.10;4.60;;;;;;;8.48;100.00;101824.23;109698;1244;71189;-73
2023/05/08 09:06:44;;;;;;;7.30;4.90;;;;;;;8.49;100.00;101822.61;109788;1241;59504;-74
2023/05/08 09:09:12;;;;;;;6.30;4.20;;;;;;;8.45;100.00;101822.77;109696;1241;73053;-76
2023/05/08 09:11:45;;;;;;;7.00;4.00;;;;;;;8.61;100.00;101830.06;109727;1243;57832;-72
2023/05/08 09:14:13;;;;;;;6.80;4.60;;;;;;;8.63;100.00;101833.75;109712;1241;60225;-72
2023/05/08 09:16:42;;;;;;;7.70;5.10;;;;;;;8.67;100.00;101835.52;109804;1241;63468;-72
2023/05/08 09:19:14;;;;;;;7.10;4.50;;;;;;;8.61;100.00;101839.44;109733;1244;61755;-71
2023/05/08 09:21:44;;;;;;;8.20;4.20;;;;;;;8.53;100.00;101840.14;109717;1241;59219;-72
2023/05/08 09:24:13;;;;;;;9.30;4.50;;;;;;;8.49;100.00;101838.42;109671;1241;63370;-72
2023/05/08 09:26:42;;;;;;;8.80;4.60;;;;;;;8.44;100.00;101838.98;109717;1244;57487;-71
2023/05/08 09:29:19;;;;;;;6.40;4.30;;;;;;;8.47;100.00;101838.16;109822;1241;60372;-71
2023/05/08 09:31:51;;;;;;;8.40;4.50;;;;;;;8.49;100.00;101843.61;109709;1242;62562;-72
2023/05/08 09:34:32;;;;;;;9.50;5.00;;;;;;;8.34;100.00;101842.19;109720;1241;72133;-71
2023/05/08 09:37:03;;;;;;;7.20;4.70;;;;;;;8.39;100.00;101844.06;109717;1241;70032;-71
2023/05/08 09:39:33;;;;;;;6.50;4.60;;;;;;;8.40;100.00;101848.02;109744;1244;63680;-72
2023/05/08 09:42:04;;;;;;;9.90;5.50;;;;;;;8.48;100.00;101848.15;109768;1241;61734;-71
2023/05/08 09:44:48;;;;;;;7.00;5.00;;;;;;;8.53;100.00;101855.25;109596;1244;57739;-73
2023/05/08 09:47:22;;;;;;;7.70;4.70;;;;;;;8.47;100.00;101855.31;109611;1244;63511;-73
2023/05/08 09:50:08;;;;;;;8.00;4.90;;;;;;;8.47;100.00;101852.39;109528;1241;72045;-73
2023/05/08 09:52:38;;;;;;;7.30;4.80;;;;;;;8.66;100.00;101850.98;109664;1243;69642;-72
2023/05/08 09:55:10;;;;;;;8.20;4.80;;;;;;;8.77;100.00;101849.77;109572;1241;73489;-74
2023/05/08 09:57:52;;;;;;;6.70;4.40;;;;;;;8.74;100.00;101853.40;109562;1244;57653;-73
2023/05/08 10:00:22;;;;;;;7.20;4.40;;;;;;;8.73;100.00;101850.67;109561;1241;57120;-72
2023/05/08 10:02:58;;;;;;;7.40;4.70;;;;;;;8.67;100.00;101850.11;109538;1245;62940;-73
2023/05/08 10:05:30;;;;;;;10.70;4.30;;;;;;;8.66;100.00;101842.47;109508;1241;72271;-72
2023/05/08 10:08:25;;;;;;;6.90;4.70;;;;;;;8.79;100.00;101850.55;109526;1241;70080;-72
2023/05/08 10:11:11;;;;;;;7.90;4.80;;;;;;;8.64;100.00;101857.33;109341;1245;74851;-74
2023/05/08 10:13:40;;;;;;;8.00;4.70;;;;;;;8.63;100.00;101861.20;109495;1244;57688;-73
2023/05/08 10:16:15;;;;;;;6.30;4.00;;;;;;;8.64;100.00;101862.02;109472;1241;58904;-73
2023/05/08 10:18:49;;;;;;;6.50;4.60;;;;;;;8.55;100.00;101868.35;109430;1244;63023;-73
2023/05/08 10:21:19;;;;;;;6.80;4.30;;;;;;;8.50;100.00;101869.42;109291;1244;60923;-73
2023/05/08 10:23:51;;;;;;;7.90;4.90;;;;;;;8.52;100.00;101872.48;109557;1241;70462;-73
2023/05/08 10:26:30;;;;;;;6.30;4.50;;;;;;;8.42;100.00;101876.58;109546;1244;64140;-72
2023/05/08 10:29:06;;;;;;;6.60;4.30;;;;;;;8.28;100.00;101876.30;109677;1241;57648;-72
2023/05/08 10:31:40;;;;;;;6.80;4.50;;;;;;;8.23;100.00;101874.25;109546;1245;57783;-73
2023/05/08 10:34:16;;;;;;;7.90;4.00;;;;;;;8.25;100.00;101876.92;109494;1241;72776;-73
2023/05/08 10:36:51;;;;;;;8.20;4.50;;;;;;;8.21;100.00;101883.17;109653;1244;62520;-73
2023/05/08 10:39:22;;;;;;;5.90;4.00;;;;;;;8.10;100.00;101884.55;109620;1241;70406;-73
2023/05/08 10:41:52;;;;;;;9.10;4.50;;;;;;;8.09;100.00;101887.05;109409;1244;64643;-73
2023/05/08 10:44:21;;;;;;;8.20;4.20;;;;;;;8.22;100.00;101889.21;109592;1241;62852;-73
2023/05/08 10:47:18;;;;;;;6.20;4.10;;;;;;;8.13;100.00;101887.88;109432;1246;61239;-73
2023/05/08 10:49:55;;;;;;;7.30;5.10;;;;;;;8.14;100.00;101886.98;109468;1241;74943;-73
2023/05/08 10:52:38;;;;;;;6.40;4.30;;;;;;;8.18;100.00;101890.27;109525;1244;72575;-73
2023/05/08 10:55:29;;;;;;;8.30;5.20;;;;;;;8.09;100.00;101890.84;109511;1241;71297;-73
2023/05/08 10:58:05;;;;;;;9.80;4.40;;;;;;;8.19;100.00;101895.77;109513;1244;64011;-73
2023/05/08 11:00:52;;;;;;;6.40;3.90;;;;;;;8.18;100.00;101895.48;109370;1245;57755;-74
2023/05/08 11:03:29;;;;;;;9.20;4.70;;;;;;;8.19;100.00;101896.98;109500;1244;57755;-73
2023/05/08 11:06:00;;;;;;;5.60;3.70;;;;;;;8.06;100.00;101899.98;109462;1244;63692;-73
2023/05/08 11:08:31;;;;;;;6.60;3.80;;;;;;;8.07;100.00;101896.30;109441;1244;61635;-74
2023/05/08 11:11:00;;;;;;;7.90;4.20;;;;;;;8.13;100.00;101902.30;109342;1241;69371;-73
2023/05/08 11:13:57;;;;;;;6.80;3.90;;;;;;;8.12;100.00;101901.11;109431;1241;63554;-74
2023/05/08 11:16:53;;;;;;;7.10;4.30;;;;;;;8.11;100.00;101909.67;109423;1244;62239;-73
2023/05/08 11:19:25;;;;;;;7.80;3.60;;;;;;;8.09;100.00;101907.83;109426;1244;58149;-72
2023/05/08 11:22:14;;;;;;;10.50;4.90;;;;;;;8.27;100.00;101908.98;109446;1242;73426;-73
2023/05/08 11:24:56;;;;;;;8.00;4.90;;;;;;;8.28;100.00;101911.02;109336;1244;61492;-72
2023/05/08 11:27:39;;;;;;;6.20;3.80;;;;;;;8.28;100.00;101909.98;109318;1245;60007;-73
2023/05/08 11:30:32;;;;;;;6.10;4.10;;;;;;;8.21;100.00;101910.63;109420;1241;73019;-72
2023/05/08 11:33:03;;;;;;;6.40;3.80;;;;;;;8.13;100.00;101909.23;109470;1241;59843;-73
2023/05/08 11:36:04;;;;;;;9.90;3.90;;;;;;;8.11;100.00;101911.59;109479;1241;61799;-73
2023/05/08 11:38:37;;;;;;;7.70;3.90;;;;;;;8.30;100.00;101912.83;109453;1241;72308;-73
2023/05/08 11:41:20;;;;;;;6.20;3.90;;;;;;;8.41;100.00;101914.83;109346;1241;71197;-74
2023/05/08 11:44:04;;;;;;;6.20;4.30;;;;;;;8.46;100.00;101915.08;109468;1241;69499;-73